KBAD/BAD METAR and TAF weather

Enter ICAO airport designator
Station Type Date Time Source
KBAD METAR 2019/10/23 07:56 UTC NOAA

KBAD 230756Z AUTO 00000KT 10SM CLR 07/07 A3014 RMK AO2 SLP209 T00660066


Station Type Date Time Source
KBAD Decoded METAR 2019/10/23 07:56 UTC NOAA

Barksdale Air Force Base, LA, United States (KBAD) 32-30N 093-40W
Oct 23, 2019 - 03:56 AM EDT / 2019.10.23 0756 UTC
Wind: Calm:0
Visibility: 10 mile(s):0
Sky conditions: clear
Temperature: 43.9 F (6.6 C)
Dew Point: 43.9 F (6.6 C)
Relative Humidity: 100%
Pressure (altimeter): 30.14 in. Hg (1020 hPa)
ob: KBAD 230756Z AUTO 00000KT 10SM CLR 07/07 A3014 RMK AO2 SLP209 T00660066
cycle: 8

Station Type Date Time Source
KBAD TAF 2019/10/23 02:06 UTC NOAA

TAF TAF KBAD 230200Z 2302/2408 00000KT 9999 SKC QNH3014INS
BECMG 2310/2311 VRB02KT 0800 FG VV002 QNH3016INS
BECMG 2314/2315 14004KT 4800 BR BKN007 QNH3016INS
BECMG 2315/2316 16010KT 9999 NSW SKC QNH3014INS TX23/2321Z TN06/2312Z

Example: see airport list